createdAt,value
2023-02-13T00:01:18.454Z,42.92
2023-02-13T00:06:23.655Z,35.33
2023-02-13T00:11:27.330Z,34.15
2023-02-13T00:16:31.076Z,40.38
2023-02-13T00:21:36.215Z,39.17
2023-02-13T00:26:40.806Z,36.65
2023-02-13T00:31:44.555Z,35.45
2023-02-13T00:36:49.653Z,35.97
2023-02-13T00:41:53.388Z,35.38
2023-02-13T00:46:57.128Z,37.35
2023-02-13T00:52:02.258Z,40.90
2023-02-13T00:57:06.206Z,34.30
2023-02-13T01:02:09.957Z,41.13
2023-02-13T01:07:16.455Z,41.08
2023-02-13T01:12:21.049Z,38.58
2023-02-13T01:17:24.779Z,39.25
2023-02-13T01:22:32.759Z,41.60
2023-02-13T01:27:38.144Z,35.10
2023-02-13T01:32:42.565Z,34.97
2023-02-13T01:37:47.749Z,34.95
2023-02-13T01:42:51.442Z,39.50
2023-02-13T01:47:58.130Z,41.45
2023-02-13T01:53:10.160Z,41.95
2023-02-13T01:58:18.546Z,37.05
2023-02-13T02:03:27.383Z,35.45
2023-02-13T02:08:36.523Z,42.47
2023-02-13T02:13:40.552Z,33.38
2023-02-13T02:18:48.100Z,36.57
2023-02-13T02:24:21.481Z,37.33
2023-02-13T02:29:51.738Z,33.13
2023-02-13T02:35:10.079Z,36.78
2023-02-13T02:40:26.452Z,34.75
2023-02-13T02:45:40.926Z,34.13
2023-02-13T02:50:55.045Z,35.78
2023-02-13T02:56:15.239Z,43.53
2023-02-13T03:01:41.698Z,43.10
2023-02-13T03:06:50.797Z,35.75
2023-02-13T03:12:14.448Z,35.08
2023-02-13T03:17:38.363Z,41.63
2023-02-13T03:22:52.832Z,35.78
2023-02-13T03:28:20.109Z,37.22
2023-02-13T03:33:45.906Z,40.40
2023-02-13T03:38:58.211Z,37.88
2023-02-13T03:44:11.951Z,36.78
2023-02-13T03:49:39.290Z,39.33
2023-02-13T03:55:06.290Z,38.60
2023-02-13T04:00:13.558Z,38.42
2023-02-13T04:05:21.185Z,37.05
2023-02-13T04:10:29.081Z,41.67
2023-02-13T04:15:38.264Z,35.13
2023-02-13T04:20:42.243Z,39.17
2023-02-13T04:25:51.178Z,35.10
2023-02-13T04:30:55.021Z,37.35
2023-02-13T04:35:58.838Z,38.38
2023-02-13T04:41:03.942Z,36.72
2023-02-13T04:46:07.645Z,33.05
2023-02-13T04:51:11.435Z,36.85
2023-02-13T04:56:17.619Z,38.25
2023-02-13T05:01:22.889Z,35.42
2023-02-13T05:06:26.673Z,32.85
2023-02-13T05:11:31.721Z,33.33
2023-02-13T05:16:35.431Z,33.38
2023-02-13T05:21:56.412Z,35.00
2023-02-13T05:27:01.461Z,38.17
2023-02-13T05:32:05.353Z,35.95
2023-02-13T05:37:09.098Z,35.90
2023-02-13T05:42:14.357Z,35.67
2023-02-13T05:47:18.122Z,30.33
2023-02-13T05:52:21.787Z,37.45
2023-02-13T05:57:26.798Z,34.75
2023-02-13T06:02:30.607Z,35.20
2023-02-13T06:07:34.278Z,35.05
2023-02-13T06:12:39.356Z,32.40
2023-02-13T06:17:43.002Z,37.17
2023-02-13T06:22:49.759Z,33.80
2023-02-13T06:27:54.869Z,35.65
2023-02-13T06:32:58.848Z,35.17
2023-02-13T06:38:02.710Z,35.72
2023-02-13T06:43:07.839Z,36.17
2023-02-13T06:48:11.554Z,40.42
2023-02-13T06:53:15.374Z,37.72
2023-02-13T06:58:20.443Z,34.83
2023-02-13T07:03:24.204Z,34.60
2023-02-13T07:08:27.897Z,38.40
2023-02-13T07:13:32.959Z,39.10
2023-02-13T07:18:38.486Z,38.13
2023-02-13T07:23:42.347Z,39.72
2023-02-13T07:28:47.503Z,37.13
2023-02-13T07:33:51.399Z,43.13
2023-02-13T07:38:55.324Z,42.10
2023-02-13T07:44:00.382Z,43.50
2023-02-13T07:49:04.273Z,39.00
2023-02-13T07:54:08.045Z,38.38
2023-02-13T07:59:13.579Z,40.08
2023-02-13T08:04:17.648Z,41.47
2023-02-13T08:09:40.931Z,56.25
2023-02-13T08:14:46.203Z,40.90
2023-02-13T08:19:50.758Z,46.20
2023-02-13T08:24:54.593Z,30.90
2023-02-13T08:30:00.109Z,37.65
2023-02-13T08:35:03.776Z,29.63
2023-02-13T08:40:10.531Z,30.85
2023-02-13T08:45:15.944Z,32.42
2023-02-13T08:50:19.665Z,33.90
2023-02-13T08:55:23.317Z,29.77
2023-02-13T09:00:28.374Z,37.45
2023-02-13T09:05:32.783Z,28.50
2023-02-13T09:10:36.652Z,34.33
2023-02-13T09:15:42.470Z,32.95
2023-02-13T09:20:46.280Z,25.88
2023-02-13T09:25:49.944Z,24.77
2023-02-13T09:30:55.214Z,21.58
2023-02-13T09:35:59.263Z,24.48
2023-02-13T09:41:08.277Z,25.60
2023-02-13T09:46:17.702Z,35.13
2023-02-13T09:51:23.735Z,18.10
2023-02-13T09:56:41.869Z,20.08
2023-02-13T10:01:51.749Z,20.88
2023-02-13T10:07:11.104Z,17.88
2023-02-13T10:12:23.924Z,20.63
2023-02-13T10:17:33.928Z,14.82
2023-02-13T10:22:43.435Z,16.23
2023-02-13T10:27:50.523Z,18.55
2023-02-13T10:33:22.916Z,13.77
2023-02-13T10:38:28.571Z,16.75
2023-02-13T10:43:39.867Z,14.25
2023-02-13T10:49:07.567Z,14.75
2023-02-13T10:54:35.332Z,14.20
2023-02-13T10:59:59.554Z,16.45
2023-02-13T11:05:16.514Z,15.95
2023-02-13T11:10:22.131Z,17.00
2023-02-13T11:15:28.712Z,18.70
2023-02-13T11:20:36.509Z,21.85
2023-02-13T11:25:40.426Z,19.75
2023-02-13T11:30:44.187Z,15.35
2023-02-13T11:35:49.818Z,15.98
2023-02-13T11:41:09.126Z,14.82
2023-02-13T11:46:20.856Z,14.60
2023-02-13T11:51:37.581Z,16.52
2023-02-13T11:57:04.126Z,13.02
2023-02-13T12:02:18.775Z,12.10
2023-02-13T12:07:26.633Z,49.75
2023-02-13T12:12:42.120Z,13.75
2023-02-13T12:17:47.876Z,13.90
2023-02-13T12:23:03.711Z,17.08
2023-02-13T12:28:15.565Z,13.10
2023-02-13T12:33:32.860Z,11.70
2023-02-13T12:38:48.850Z,10.90
2023-02-13T12:44:25.113Z,11.53
2023-02-13T12:50:03.391Z,9.25
2023-02-13T12:55:30.036Z,9.93
2023-02-13T13:00:44.903Z,10.55
2023-02-13T13:06:28.367Z,10.45
2023-02-13T13:12:00.317Z,10.73
2023-02-13T13:17:12.748Z,15.50
2023-02-13T13:22:22.593Z,21.38
2023-02-13T13:27:30.659Z,10.30
2023-02-13T13:32:35.606Z,16.00
2023-02-13T13:37:43.938Z,12.85
2023-02-13T13:42:53.208Z,11.68
2023-02-13T13:48:32.702Z,16.65
2023-02-13T13:53:38.378Z,16.10
2023-02-13T13:58:49.542Z,20.88
2023-02-13T14:03:55.399Z,15.40
2023-02-13T14:09:03.112Z,20.35
2023-02-13T14:14:42.399Z,17.48
2023-02-13T14:19:52.500Z,16.13
2023-02-13T14:24:58.458Z,18.63
2023-02-13T14:30:03.144Z,16.33
2023-02-13T14:35:19.572Z,14.70
2023-02-13T14:40:54.554Z,11.93
2023-02-13T14:46:03.333Z,10.02
2023-02-13T14:51:14.145Z,10.10
2023-02-13T14:56:22.688Z,10.85
2023-02-13T15:01:32.157Z,11.00
2023-02-13T15:06:40.451Z,13.82
2023-02-13T15:11:45.565Z,12.98
2023-02-13T15:16:53.556Z,13.40
2023-02-13T15:22:04.077Z,12.30
2023-02-13T15:27:08.975Z,16.40
2023-02-13T15:32:27.226Z,12.23
2023-02-13T15:37:32.486Z,12.10
2023-02-13T15:42:36.454Z,14.38
2023-02-13T15:47:41.722Z,14.57
2023-02-13T15:52:48.347Z,11.38
2023-02-13T15:57:54.770Z,14.48
2023-02-13T16:03:00.591Z,11.57
2023-02-13T16:08:30.385Z,11.85
2023-02-13T16:13:34.419Z,16.88
2023-02-13T16:18:38.690Z,12.63
2023-02-13T16:23:46.178Z,10.60
2023-02-13T16:28:53.578Z,14.32
2023-02-13T16:33:57.670Z,16.05
2023-02-13T16:39:12.804Z,13.73
2023-02-13T16:44:31.264Z,14.48
2023-02-13T16:49:37.502Z,12.32
2023-02-13T16:54:53.493Z,16.67
2023-02-13T17:00:04.206Z,13.15
2023-02-13T17:05:22.667Z,16.38
2023-02-13T17:10:31.190Z,11.52
2023-02-13T17:15:34.988Z,12.40
2023-02-13T17:20:41.567Z,14.80
2023-02-13T17:25:48.093Z,16.50
2023-02-13T17:30:54.159Z,19.55
2023-02-13T17:35:58.224Z,12.63
2023-02-13T17:41:03.598Z,15.15
2023-02-13T17:46:07.468Z,16.70
2023-02-13T17:51:13.822Z,15.45
2023-02-13T17:56:18.940Z,14.70
2023-02-13T18:01:22.831Z,16.77
2023-02-13T18:06:26.823Z,17.25
2023-02-13T18:11:31.971Z,15.52
2023-02-13T18:16:35.634Z,16.65
2023-02-13T18:21:39.426Z,17.10
2023-02-13T18:26:44.494Z,17.00
2023-02-13T18:31:48.500Z,19.00
2023-02-13T18:36:52.527Z,16.88
2023-02-13T18:41:57.549Z,13.27
2023-02-13T18:47:01.581Z,18.38
2023-02-13T18:52:05.504Z,17.13
2023-02-13T18:57:10.591Z,17.30
2023-02-13T19:02:14.411Z,21.45
2023-02-13T19:07:18.176Z,18.95
2023-02-13T19:12:23.274Z,19.02
2023-02-13T19:17:27.013Z,25.30
2023-02-13T19:22:30.784Z,20.67
2023-02-13T19:27:37.732Z,22.65
2023-02-13T19:32:41.532Z,23.42
2023-02-13T19:37:45.204Z,18.90
2023-02-13T19:42:50.322Z,21.20
2023-02-13T19:47:55.209Z,20.77
2023-02-13T19:52:58.922Z,21.63
2023-02-13T19:58:03.938Z,20.25
2023-02-13T20:03:07.702Z,20.20
2023-02-13T20:08:11.685Z,23.58
2023-02-13T20:13:16.802Z,19.05
2023-02-13T20:18:20.827Z,17.35
2023-02-13T20:23:24.501Z,18.90
2023-02-13T20:28:29.655Z,17.52
2023-02-13T20:33:33.319Z,18.08
2023-02-13T20:38:37.255Z,17.02
2023-02-13T20:43:42.750Z,20.33
2023-02-13T20:48:48.193Z,26.00
2023-02-13T20:53:51.945Z,22.55
2023-02-13T20:59:00.596Z,23.08
2023-02-13T21:04:04.578Z,20.60
2023-02-13T21:09:10.635Z,20.42
2023-02-13T21:14:15.909Z,20.77
2023-02-13T21:19:20.294Z,24.25
2023-02-13T21:24:24.723Z,26.85
2023-02-13T21:29:29.794Z,29.42
2023-02-13T21:34:33.525Z,24.30
2023-02-13T21:39:37.505Z,22.08
2023-02-13T21:44:42.756Z,24.27
2023-02-13T21:49:46.430Z,25.20
2023-02-13T21:54:50.186Z,21.52
2023-02-13T21:59:56.311Z,22.50
2023-02-13T22:05:00.148Z,23.73
2023-02-13T22:10:03.844Z,24.35
2023-02-13T22:15:09.729Z,24.85
2023-02-13T22:20:14.088Z,25.38
2023-02-13T22:25:18.259Z,27.00
2023-02-13T22:30:23.605Z,31.42
2023-02-13T22:35:27.373Z,30.80
2023-02-13T22:40:31.067Z,29.17
2023-02-13T22:45:37.040Z,27.52
2023-02-13T22:50:40.777Z,27.05
2023-02-13T22:55:44.622Z,24.35
2023-02-13T23:00:49.843Z,26.75
2023-02-13T23:05:53.586Z,29.52
2023-02-13T23:11:14.667Z,27.15
2023-02-13T23:16:20.023Z,26.38
2023-02-13T23:21:24.155Z,26.95
2023-02-13T23:26:27.858Z,24.88
2023-02-13T23:31:33.447Z,27.85
2023-02-13T23:36:37.216Z,26.20
2023-02-13T23:41:40.961Z,27.08
2023-02-13T23:46:46.297Z,24.75
2023-02-13T23:51:50.264Z,26.77
2023-02-13T23:56:55.906Z,21.52
